Terminal Aerodrome Forecast
Issued by NWS Jackson, MS

Current Version | Previous Version | Text Only | Print | Product List | Glossary On
Versions: 1 2 3 4 5 6 7 8 9 10 11 12 13 14 15 16 17 18 19
000
FTUS44 KMEG 042337
TAFTUP
TAF
KTUP 042337Z 0500/0524 VRB02KT P6SM VCSH SCT028 OVC100
      TEMPO 0500/0502 BKN028 OVC100
     FM050200 VRB02KT P6SM SCT030 OVC100
     FM050600 VRB02KT 5SM BR BKN012 OVC020
      TEMPO 0509/0513 2SM BR OVC007
     FM051600 24006KT P6SM BKN020 OVC035
     FM051900 24006KT P6SM VCTS BKN040CB=

USA.gov is the U.S. government's official web portal to all federal, state and local government web resources and services.